Time;durP1;ratioP1;P1;durP2;ratioP2;P2;SDS_P1;SDS_P2;PMS_P1;PMS_P2;Temp;Humidity;BMP_temperature;BMP_pressure;BME280_temperature;BME280_humidity;BME280_pressure;Samples;Min_cycle;Max_cycle;Signal;HPM_P1;HPM_P2
2023/06/26 00:01:54;;;;;;;5.65;3.70;;;;;;;;;;8337288;28;20488;-61
2023/06/26 00:05:54;;;;;;;4.15;3.75;;;;;;;;;;8346509;28;20040;-61
2023/06/26 00:09:54;;;;;;;3.95;3.28;;;;;;;;;;8337709;28;20254;-61
2023/06/26 00:13:55;;;;;;;4.20;3.80;;;;;;;;;;8338595;28;20059;-61
2023/06/26 00:17:55;;;;;;;4.10;3.70;;;;;;;;;;8341102;28;20271;-61
2023/06/26 00:21:55;;;;;;;3.58;3.28;;;;;;;;;;8347547;28;20025;-60
2023/06/26 00:25:55;;;;;;;3.85;3.55;;;;;;;;;;8338058;28;20033;-61
2023/06/26 00:29:55;;;;;;;3.97;3.63;;;;;;;;;;8337469;28;20046;-61
2023/06/26 00:33:56;;;;;;;3.80;3.50;;;;;;;;;;8333559;28;20499;-61
2023/06/26 00:37:56;;;;;;;5.70;3.92;;;;;;;;;;8335733;28;20021;-61
2023/06/26 00:41:56;;;;;;;3.95;3.58;;;;;;;;;;8333459;28;20064;-61
2023/06/26 00:45:56;;;;;;;4.40;4.00;;;;;;;;;;8334956;28;20230;-61
2023/06/26 00:49:57;;;;;;;4.03;3.73;;;;;;;;;;8336316;28;20021;-61
2023/06/26 00:53:57;;;;;;;4.85;4.40;;;;;;;;;;8340107;28;20024;-60
2023/06/26 00:57:57;;;;;;;4.15;3.75;;;;;;;;;;8333502;28;20049;-60
2023/06/26 01:01:58;;;;;;;4.38;3.97;;;;;;;;;;8334107;28;20044;-60
2023/06/26 01:05:59;;;;;;;4.35;3.67;;;;;;;;;;8332613;28;20029;-60
2023/06/26 01:09:59;;;;;;;4.10;3.70;;;;;;;;;;8335796;28;20082;-61
2023/06/26 01:14:00;;;;;;;4.13;3.63;;;;;;;;;;8333868;28;20032;-60
2023/06/26 01:18:03;;;;;;;3.83;3.53;;;;;;;;;;8332641;28;20148;-60
2023/06/26 01:22:15;;;;;;;4.30;3.90;;;;;;;;;;8331770;28;20112;-60
2023/06/26 01:26:17;;;;;;;4.07;3.67;;;;;;;;;;8333644;28;20031;-60
2023/06/26 01:30:18;;;;;;;3.97;3.65;;;;;;;;;;8333868;28;20515;-61
2023/06/26 01:34:18;;;;;;;3.90;3.60;;;;;;;;;;8334333;28;20072;-60
2023/06/26 01:38:19;;;;;;;5.23;3.70;;;;;;;;;;8332040;28;20036;-60
2023/06/26 01:42:20;;;;;;;4.32;3.92;;;;;;;;;;8331681;28;20167;-60
2023/06/26 01:46:23;;;;;;;5.10;3.70;;;;;;;;;;8330865;28;20076;-60
2023/06/26 01:50:23;;;;;;;;;;;;;;;;;;8339417;28;20484;-60
2023/06/26 01:54:25;;;;;;;5.03;3.70;;;;;;;;;;8332326;28;19919;-61
2023/06/26 01:58:25;;;;;;;4.43;3.90;;;;;;;;;;8333833;28;20047;-61
2023/06/26 02:02:28;;;;;;;4.27;3.57;;;;;;;;;;8332649;28;20652;-61
2023/06/26 02:06:28;;;;;;;4.35;3.60;;;;;;;;;;8335411;28;20701;-60
2023/06/26 02:10:28;;;;;;;4.60;3.65;;;;;;;;;;8333009;28;20021;-61
2023/06/26 02:14:28;;;;;;;5.00;3.60;;;;;;;;;;8339721;28;20529;-61
2023/06/26 02:18:29;;;;;;;3.88;3.53;;;;;;;;;;8337067;28;20572;-61
2023/06/26 02:22:29;;;;;;;3.83;3.47;;;;;;;;;;8345284;28;20029;-61
2023/06/26 02:26:29;;;;;;;3.70;3.40;;;;;;;;;;8333800;28;20029;-60
2023/06/26 02:30:29;;;;;;;4.03;3.63;;;;;;;;;;8338715;28;20530;-60
2023/06/26 02:34:30;;;;;;;3.88;3.50;;;;;;;;;;8332942;28;20049;-60
2023/06/26 02:38:30;;;;;;;4.05;3.65;;;;;;;;;;8333993;28;20060;-60
2023/06/26 02:42:31;;;;;;;3.72;3.42;;;;;;;;;;8329876;28;20090;-60
2023/06/26 02:46:31;;;;;;;3.63;3.20;;;;;;;;;;8330891;28;20797;-61
2023/06/26 02:50:31;;;;;;;3.43;3.13;;;;;;;;;;8333513;28;20423;-60
2023/06/26 02:54:32;;;;;;;3.45;3.13;;;;;;;;;;8332616;28;20037;-61
2023/06/26 02:58:32;;;;;;;3.70;3.40;;;;;;;;;;8333781;28;20021;-61
2023/06/26 03:02:33;;;;;;;3.87;3.50;;;;;;;;;;8323139;28;20036;-60
2023/06/26 03:06:33;;;;;;;3.70;3.40;;;;;;;;;;8338965;28;20309;-61
2023/06/26 03:10:33;;;;;;;4.43;3.40;;;;;;;;;;8338561;28;20933;-61
2023/06/26 03:14:33;;;;;;;3.60;3.30;;;;;;;;;;8335326;28;20033;-60
2023/06/26 03:18:33;;;;;;;3.80;3.40;;;;;;;;;;8336835;28;20043;-61
2023/06/26 03:22:34;;;;;;;5.18;3.35;;;;;;;;;;8340503;28;20112;-61
2023/06/26 03:26:34;;;;;;;3.50;3.20;;;;;;;;;;8339930;28;20039;-61
2023/06/26 03:30:34;;;;;;;3.83;3.38;;;;;;;;;;8340975;28;20272;-61
2023/06/26 03:34:34;;;;;;;3.58;3.28;;;;;;;;;;8337492;28;20113;-61
2023/06/26 03:38:35;;;;;;;4.43;3.38;;;;;;;;;;8341266;28;20040;-61
2023/06/26 03:42:35;;;;;;;6.23;3.40;;;;;;;;;;8335381;28;20182;-61
2023/06/26 03:46:36;;;;;;;3.50;3.20;;;;;;;;;;8337380;28;20049;-61
2023/06/26 03:50:36;;;;;;;3.58;3.28;;;;;;;;;;8339287;28;20362;-61
2023/06/26 03:54:37;;;;;;;3.50;3.20;;;;;;;;;;8339790;28;20074;-61
2023/06/26 03:58:37;;;;;;;4.10;3.20;;;;;;;;;;8342449;28;20763;-61
2023/06/26 04:02:38;;;;;;;3.33;3.03;;;;;;;;;;8335339;28;20900;-61
2023/06/26 04:06:39;;;;;;;3.80;3.15;;;;;;;;;;8335775;28;20091;-61
2023/06/26 04:10:39;;;;;;;3.67;3.00;;;;;;;;;;8337053;28;20451;-61
2023/06/26 04:14:39;;;;;;;3.78;2.92;;;;;;;;;;8337857;28;20060;-61
2023/06/26 04:18:39;;;;;;;3.75;3.22;;;;;;;;;;8335664;28;20915;-61
2023/06/26 04:22:40;;;;;;;3.50;3.20;;;;;;;;;;8327670;28;20024;-60
2023/06/26 04:26:41;;;;;;;3.30;3.00;;;;;;;;;;8341017;28;20029;-61
2023/06/26 04:30:41;;;;;;;3.80;3.40;;;;;;;;;;8335689;28;20291;-61
2023/06/26 04:34:44;;;;;;;3.90;3.40;;;;;;;;;;8336096;28;20108;-61
2023/06/26 04:38:44;;;;;;;4.03;3.40;;;;;;;;;;8333251;28;20740;-60
2023/06/26 04:42:44;;;;;;;3.85;3.47;;;;;;;;;;8333187;28;20037;-61
2023/06/26 04:46:44;;;;;;;3.97;3.65;;;;;;;;;;8333916;28;20040;-61
2023/06/26 04:50:52;;;;;;;4.40;3.80;;;;;;;;;;8330267;28;20115;-61
2023/06/26 04:54:52;;;;;;;5.65;3.50;;;;;;;;;;8332297;28;20031;-61
2023/06/26 04:58:52;;;;;;;4.18;3.45;;;;;;;;;;8343323;28;20016;-61
2023/06/26 05:03:00;;;;;;;4.45;3.55;;;;;;;;;;8333766;28;20042;-61
2023/06/26 05:07:00;;;;;;;3.83;3.45;;;;;;;;;;8332344;28;20024;-61
2023/06/26 05:11:00;;;;;;;3.73;3.40;;;;;;;;;;8335729;28;20071;-61
2023/06/26 05:15:00;;;;;;;4.50;3.30;;;;;;;;;;8332625;28;20025;-61
2023/06/26 05:19:02;;;;;;;4.80;3.38;;;;;;;;;;8331752;28;20105;-61
2023/06/26 05:23:02;;;;;;;3.50;3.20;;;;;;;;;;8331806;28;20084;-61
2023/06/26 05:27:03;;;;;;;3.78;3.08;;;;;;;;;;8333968;28;20028;-61
2023/06/26 05:31:06;;;;;;;3.80;3.50;;;;;;;;;;8331628;28;20175;-61
2023/06/26 05:35:06;;;;;;;;;;;;;;;;;;8334171;28;20677;-61
2023/06/26 05:39:07;;;;;;;4.63;4.00;;;;;;;;;;8333877;28;19912;-61
2023/06/26 05:43:07;;;;;;;4.38;3.97;;;;;;;;;;8334989;28;20433;-61
2023/06/26 05:47:07;;;;;;;4.50;4.10;;;;;;;;;;8331854;28;20057;-61
2023/06/26 05:51:08;;;;;;;4.72;3.47;;;;;;;;;;8338281;28;20036;-61
2023/06/26 05:55:08;;;;;;;6.63;3.63;;;;;;;;;;8333683;28;20464;-61
2023/06/26 05:59:09;;;;;;;4.47;3.65;;;;;;;;;;8331578;28;20062;-61
2023/06/26 06:03:10;;;;;;;4.68;3.40;;;;;;;;;;8334470;28;20151;-61
2023/06/26 06:07:11;;;;;;;5.72;3.30;;;;;;;;;;8333244;28;20064;-61
2023/06/26 06:11:11;;;;;;;9.82;3.53;;;;;;;;;;8341377;28;20497;-61
2023/06/26 06:15:11;;;;;;;9.33;3.57;;;;;;;;;;8331781;28;20787;-61
2023/06/26 06:19:13;;;;;;;9.45;3.50;;;;;;;;;;8334735;28;20898;-61
2023/06/26 06:23:13;;;;;;;6.43;3.73;;;;;;;;;;8338591;28;20118;-61
2023/06/26 06:27:14;;;;;;;4.30;3.70;;;;;;;;;;8336101;28;20361;-61
2023/06/26 06:31:14;;;;;;;5.53;3.22;;;;;;;;;;8327834;28;20036;-61
2023/06/26 06:35:14;;;;;;;6.10;3.80;;;;;;;;;;8334056;28;20626;-61
2023/06/26 06:39:15;;;;;;;8.85;3.67;;;;;;;;;;8322344;28;20532;-61
2023/06/26 06:43:15;;;;;;;7.13;3.72;;;;;;;;;;8335903;28;20028;-61
2023/06/26 06:47:15;;;;;;;3.78;3.28;;;;;;;;;;8339125;28;20044;-61
2023/06/26 06:51:15;;;;;;;7.55;3.70;;;;;;;;;;8338357;28;20109;-61
2023/06/26 06:55:16;;;;;;;4.87;3.43;;;;;;;;;;8337329;28;20028;-61
2023/06/26 06:59:16;;;;;;;4.50;3.50;;;;;;;;;;8341189;28;20600;-61
2023/06/26 07:03:16;;;;;;;5.57;3.53;;;;;;;;;;8347315;28;20877;-61
2023/06/26 07:07:18;;;;;;;7.03;3.50;;;;;;;;;;8350742;28;20060;-62
2023/06/26 07:11:18;;;;;;;6.10;3.20;;;;;;;;;;8341856;28;20020;-61
2023/06/26 07:15:19;;;;;;;5.05;3.33;;;;;;;;;;8342767;28;20094;-61
2023/06/26 07:19:19;;;;;;;4.60;3.20;;;;;;;;;;8338438;28;20139;-61
2023/06/26 07:23:19;;;;;;;4.72;3.40;;;;;;;;;;8337890;28;20142;-61
2023/06/26 07:27:19;;;;;;;4.20;3.70;;;;;;;;;;8337319;28;20024;-61
2023/06/26 07:31:20;;;;;;;5.93;3.33;;;;;;;;;;8346764;28;20041;-61
2023/06/26 07:35:20;;;;;;;5.32;3.40;;;;;;;;;;8345412;28;20040;-61
2023/06/26 07:39:20;;;;;;;7.13;3.33;;;;;;;;;;8337430;28;20813;-61
2023/06/26 07:43:20;;;;;;;6.10;3.80;;;;;;;;;;8318986;28;20592;-61
2023/06/26 07:47:20;;;;;;;7.35;3.97;;;;;;;;;;8335285;28;20158;-61
2023/06/26 07:51:21;;;;;;;8.25;3.90;;;;;;;;;;8337297;28;20638;-61
2023/06/26 07:55:21;;;;;;;4.30;3.90;;;;;;;;;;8336577;28;20032;-61
2023/06/26 07:59:23;;;;;;;9.63;4.18;;;;;;;;;;8337355;28;20129;-63
2023/06/26 08:03:23;;;;;;;5.50;3.70;;;;;;;;;;8347196;28;20032;-61
2023/06/26 08:07:23;;;;;;;6.13;4.18;;;;;;;;;;8336419;28;20032;-61
2023/06/26 08:11:23;;;;;;;5.18;3.60;;;;;;;;;;8335863;28;20059;-61
2023/06/26 08:15:24;;;;;;;4.87;4.17;;;;;;;;;;8334387;28;20036;-61
2023/06/26 08:19:24;;;;;;;4.38;3.97;;;;;;;;;;8334052;28;20773;-61
2023/06/26 08:23:24;;;;;;;4.70;3.73;;;;;;;;;;8339647;28;20016;-61
2023/06/26 08:27:24;;;;;;;4.18;3.88;;;;;;;;;;8342497;28;20163;-61
2023/06/26 08:31:25;;;;;;;5.00;3.70;;;;;;;;;;8332724;28;20029;-62
2023/06/26 08:35:25;;;;;;;4.55;3.80;;;;;;;;;;8335634;28;20275;-61
2023/06/26 08:39:25;;;;;;;4.60;4.10;;;;;;;;;;8335480;28;20029;-61
2023/06/26 08:43:26;;;;;;;5.93;3.63;;;;;;;;;;8329856;28;20020;-61
2023/06/26 08:47:27;;;;;;;4.05;3.60;;;;;;;;;;8331889;28;20632;-61
2023/06/26 08:51:28;;;;;;;7.03;3.80;;;;;;;;;;8333020;28;20040;-62
2023/06/26 08:55:28;;;;;;;6.95;4.15;;;;;;;;;;8334037;28;20025;-61
2023/06/26 08:59:29;;;;;;;4.30;3.87;;;;;;;;;;8344317;28;20124;-61
2023/06/26 09:03:30;;;;;;;5.18;3.88;;;;;;;;;;8335005;28;20866;-61
2023/06/26 09:07:30;;;;;;;4.53;4.13;;;;;;;;;;8328476;28;20516;-61
2023/06/26 09:11:30;;;;;;;7.47;4.10;;;;;;;;;;8326468;28;20791;-61
2023/06/26 09:15:38;;;;;;;4.30;3.90;;;;;;;;;;8325614;28;20103;-61
2023/06/26 09:19:38;;;;;;;4.13;3.83;;;;;;;;;;8330948;28;20222;-61
2023/06/26 09:23:42;;;;;;;5.70;3.88;;;;;;;;;;8332434;28;20064;-62
2023/06/26 09:27:42;;;;;;;4.88;3.70;;;;;;;;;;8334955;28;20033;-61
2023/06/26 09:31:43;;;;;;;4.20;3.80;;;;;;;;;;8331010;28;20116;-61
2023/06/26 09:35:44;;;;;;;3.75;3.45;;;;;;;;;;8338251;28;20060;-61
2023/06/26 09:39:44;;;;;;;4.40;3.78;;;;;;;;;;8328181;28;20025;-61
2023/06/26 09:43:45;;;;;;;4.10;3.70;;;;;;;;;;8323941;28;20132;-61
2023/06/26 09:47:46;;;;;;;7.20;4.17;;;;;;;;;;8321361;28;20052;-61
2023/06/26 09:51:46;;;;;;;4.10;3.40;;;;;;;;;;8330561;28;20036;-61
2023/06/26 09:55:46;;;;;;;3.75;3.45;;;;;;;;;;8325310;28;20468;-61
2023/06/26 09:59:47;;;;;;;5.77;3.60;;;;;;;;;;8327119;28;20549;-62
2023/06/26 10:03:47;;;;;;;5.57;3.17;;;;;;;;;;8326637;28;20505;-61
2023/06/26 10:07:48;;;;;;;4.35;3.22;;;;;;;;;;8327208;28;20136;-61
2023/06/26 10:12:01;;;;;;;5.17;3.53;;;;;;;;;;8327427;28;20244;-61
2023/06/26 10:16:02;;;;;;;3.72;3.35;;;;;;;;;;8324519;28;20064;-61
2023/06/26 10:20:03;;;;;;;6.35;3.42;;;;;;;;;;8328839;28;20565;-61
2023/06/26 10:24:04;;;;;;;3.40;3.05;;;;;;;;;;8326956;28;20131;-61
2023/06/26 10:28:05;;;;;;;3.60;3.10;;;;;;;;;;8326535;28;20033;-61
2023/06/26 10:32:06;;;;;;;3.97;3.30;;;;;;;;;;8325373;28;20110;-61
2023/06/26 10:36:06;;;;;;;;;;;;;;;;;;8328005;28;20079;-61
2023/06/26 10:40:07;;;;;;;3.90;3.10;;;;;;;;;;8336269;28;20440;-61
2023/06/26 10:44:11;;;;;;;3.90;3.10;;;;;;;;;;8331550;28;20044;-61
2023/06/26 10:48:15;;;;;;;4.88;3.30;;;;;;;;;;8305535;28;20041;-61
2023/06/26 10:52:15;;;;;;;3.55;3.17;;;;;;;;;;8323886;28;20024;-62
2023/06/26 10:56:16;;;;;;;4.20;3.17;;;;;;;;;;8322420;28;20025;-62
2023/06/26 11:00:16;;;;;;;3.40;3.10;;;;;;;;;;8327383;28;20032;-62
2023/06/26 11:04:16;;;;;;;5.00;3.10;;;;;;;;;;8329801;28;20032;-61
2023/06/26 11:08:19;;;;;;;3.92;3.15;;;;;;;;;;8326731;28;20510;-62
2023/06/26 11:12:35;;;;;;;5.43;3.35;;;;;;;;;;8324133;28;20020;-61
2023/06/26 11:16:35;;;;;;;5.57;3.17;;;;;;;;;;8335109;28;20148;-62
2023/06/26 11:20:35;;;;;;;5.28;3.05;;;;;;;;;;8333830;28;20024;-61
2023/06/26 11:24:35;;;;;;;5.78;3.80;;;;;;;;;;8333941;28;20886;-62
2023/06/26 11:28:36;;;;;;;4.10;3.50;;;;;;;;;;8313346;28;20500;-62
2023/06/26 11:32:37;;;;;;;7.70;3.80;;;;;;;;;;8331351;28;20170;-62
2023/06/26 11:36:38;;;;;;;7.38;3.60;;;;;;;;;;8331294;28;20028;-62
2023/06/26 11:40:38;;;;;;;5.40;3.90;;;;;;;;;;8331523;28;20036;-61
2023/06/26 11:44:42;;;;;;;7.13;5.30;;;;;;;;;;8330146;28;20589;-62
2023/06/26 11:48:43;;;;;;;8.13;4.53;;;;;;;;;;8333005;28;20040;-61
2023/06/26 11:52:43;;;;;;;6.37;4.80;;;;;;;;;;8329492;28;20039;-62
2023/06/26 11:56:51;;;;;;;7.22;5.25;;;;;;;;;;8327307;28;20037;-62
2023/06/26 12:00:51;;;;;;;5.88;5.28;;;;;;;;;;8325182;28;20358;-61
2023/06/26 12:04:51;;;;;;;5.75;5.20;;;;;;;;;;8327707;28;20029;-61
2023/06/26 12:08:52;;;;;;;7.07;5.27;;;;;;;;;;8337429;28;20095;-62
2023/06/26 12:12:52;;;;;;;5.43;4.93;;;;;;;;;;8328032;28;20463;-61
2023/06/26 12:16:53;;;;;;;6.07;4.57;;;;;;;;;;8327724;28;20033;-61
2023/06/26 12:20:53;;;;;;;4.53;4.13;;;;;;;;;;8339195;28;20040;-61
2023/06/26 12:24:56;;;;;;;4.20;3.90;;;;;;;;;;8329147;28;20037;-61
2023/06/26 12:29:04;;;;;;;5.88;4.00;;;;;;;;;;8331724;28;20525;-62
2023/06/26 12:33:12;;;;;;;8.18;3.42;;;;;;;;;;8331300;28;20037;-61
2023/06/26 12:37:13;;;;;;;5.78;3.03;;;;;;;;;;8329847;28;20056;-61
2023/06/26 12:41:14;;;;;;;3.03;2.80;;;;;;;;;;8338949;28;20032;-61
2023/06/26 12:45:15;;;;;;;4.25;2.92;;;;;;;;;;8319064;28;20136;-61
2023/06/26 12:49:16;;;;;;;2.70;2.50;;;;;;;;;;8331550;28;20056;-61
2023/06/26 12:53:16;;;;;;;3.40;2.58;;;;;;;;;;8331401;28;20115;-61
2023/06/26 12:57:18;;;;;;;4.78;2.22;;;;;;;;;;8328121;28;20084;-61
2023/06/26 13:01:19;;;;;;;5.73;2.20;;;;;;;;;;8332959;28;20044;-62
2023/06/26 13:05:20;;;;;;;;;;;;;;;;;;8334068;28;20102;-61
2023/06/26 13:09:20;;;;;;;5.13;1.90;;;;;;;;;;8331422;28;19981;-61
2023/06/26 13:13:21;;;;;;;1.97;1.50;;;;;;;;;;8320655;28;20065;-61
2023/06/26 13:17:22;;;;;;;3.83;1.90;;;;;;;;;;8327154;28;20073;-61
2023/06/26 13:21:22;;;;;;;7.20;1.85;;;;;;;;;;8314775;28;20024;-62
2023/06/26 13:25:22;;;;;;;3.33;1.83;;;;;;;;;;8334640;28;20033;-62
2023/06/26 13:29:23;;;;;;;3.47;1.83;;;;;;;;;;8313147;28;20136;-56
2023/06/26 13:33:25;;;;;;;4.30;2.17;;;;;;;;;;8330468;28;20123;-58
2023/06/26 13:37:25;;;;;;;3.30;1.92;;;;;;;;;;8310936;28;20811;-58
2023/06/26 13:41:25;;;;;;;2.65;1.88;;;;;;;;;;8330243;28;20037;-62
2023/06/26 13:45:32;;;;;;;4.03;1.90;;;;;;;;;;8339693;28;20047;-62
2023/06/26 13:49:32;;;;;;;3.03;2.03;;;;;;;;;;8363711;28;20035;-62
2023/06/26 13:53:33;;;;;;;1.70;1.60;;;;;;;;;;8368948;28;20026;-62
2023/06/26 13:57:33;;;;;;;3.87;1.77;;;;;;;;;;8361739;28;20082;-62
2023/06/26 14:01:33;;;;;;;6.03;1.57;;;;;;;;;;8363314;28;20790;-62
2023/06/26 14:05:34;;;;;;;2.22;1.55;;;;;;;;;;8362379;28;20067;-62
2023/06/26 14:09:34;;;;;;;5.40;1.70;;;;;;;;;;8363949;28;20025;-62
2023/06/26 14:13:38;;;;;;;6.20;1.70;;;;;;;;;;8359485;28;20016;-62
2023/06/26 14:17:39;;;;;;;5.25;1.70;;;;;;;;;;8361074;28;20032;-62
2023/06/26 14:21:40;;;;;;;7.38;1.50;;;;;;;;;;8360410;28;20088;-62
2023/06/26 14:25:40;;;;;;;7.77;1.40;;;;;;;;;;8362698;28;20142;-62
2023/06/26 14:29:42;;;;;;;2.73;1.57;;;;;;;;;;8366404;28;20115;-62
2023/06/26 14:33:42;;;;;;;4.63;1.55;;;;;;;;;;8354117;28;20147;-62
2023/06/26 14:37:43;;;;;;;5.47;1.50;;;;;;;;;;8362078;28;20047;-62
2023/06/26 14:41:44;;;;;;;5.20;1.40;;;;;;;;;;8350508;28;20039;-62
2023/06/26 14:45:44;;;;;;;5.13;1.70;;;;;;;;;;8324537;28;20150;-62
2023/06/26 14:49:44;;;;;;;2.50;1.65;;;;;;;;;;8310932;28;20071;-62
2023/06/26 14:53:44;;;;;;;2.60;1.47;;;;;;;;;;8316616;28;20186;-62
2023/06/26 14:57:45;;;;;;;1.65;1.20;;;;;;;;;;8331563;28;20273;-62
2023/06/26 15:01:45;;;;;;;1.92;1.15;;;;;;;;;;8336667;28;20036;-62
2023/06/26 15:05:45;;;;;;;8.50;1.57;;;;;;;;;;8334217;28;20056;-62
2023/06/26 15:09:45;;;;;;;2.20;1.30;;;;;;;;;;8332823;28;20070;-62
2023/06/26 15:13:46;;;;;;;3.78;1.40;;;;;;;;;;8334469;28;20064;-62
2023/06/26 15:17:46;;;;;;;2.83;1.40;;;;;;;;;;8336943;28;20041;-62
2023/06/26 15:21:46;;;;;;;3.00;1.48;;;;;;;;;;8329854;28;20033;-62
2023/06/26 15:25:46;;;;;;;3.93;1.40;;;;;;;;;;8332548;28;20702;-62
2023/06/26 15:29:47;;;;;;;2.25;1.27;;;;;;;;;;8332684;28;20381;-62
2023/06/26 15:33:47;;;;;;;2.15;1.35;;;;;;;;;;8333992;28;20028;-62
2023/06/26 15:37:49;;;;;;;2.80;1.38;;;;;;;;;;8333956;28;20052;-62
2023/06/26 15:41:49;;;;;;;2.20;1.10;;;;;;;;;;8334060;28;20020;-62
2023/06/26 15:45:49;;;;;;;4.00;2.15;;;;;;;;;;8332315;28;20052;-62
2023/06/26 15:49:49;;;;;;;4.20;1.40;;;;;;;;;;8332359;28;20513;-62
2023/06/26 15:53:54;;;;;;;3.03;1.35;;;;;;;;;;8332925;28;20056;-63
2023/06/26 15:57:54;;;;;;;3.88;1.10;;;;;;;;;;8330767;28;20020;-62
2023/06/26 16:01:55;;;;;;;4.17;1.30;;;;;;;;;;8329215;28;20048;-62
2023/06/26 16:05:55;;;;;;;4.57;1.60;;;;;;;;;;8330536;28;20016;-63
2023/06/26 16:09:58;;;;;;;3.67;1.75;;;;;;;;;;8329879;28;20021;-62
2023/06/26 16:13:58;;;;;;;4.63;1.40;;;;;;;;;;8330057;28;20036;-62
2023/06/26 16:17:58;;;;;;;3.40;1.40;;;;;;;;;;8331592;28;20548;-62
2023/06/26 16:21:59;;;;;;;2.87;1.30;;;;;;;;;;8331652;28;20025;-62
2023/06/26 16:25:59;;;;;;;4.00;1.38;;;;;;;;;;8329794;28;20063;-62
2023/06/26 16:29:59;;;;;;;4.25;1.33;;;;;;;;;;8331314;28;20021;-62
2023/06/26 16:34:00;;;;;;;2.60;1.50;;;;;;;;;;8331055;28;20117;-62
2023/06/26 16:38:01;;;;;;;2.03;1.38;;;;;;;;;;8330878;28;20021;-62
2023/06/26 16:42:01;;;;;;;2.17;1.17;;;;;;;;;;8321739;28;20499;-62
2023/06/26 16:46:02;;;;;;;3.13;1.40;;;;;;;;;;8331184;28;20040;-62
2023/06/26 16:50:02;;;;;;;3.08;1.42;;;;;;;;;;8319875;28;20056;-62
2023/06/26 16:54:02;;;;;;;6.23;1.80;;;;;;;;;;8331146;28;20159;-61
2023/06/26 16:58:02;;;;;;;5.32;1.40;;;;;;;;;;8329507;28;20016;-62
2023/06/26 17:02:03;;;;;;;6.90;1.37;;;;;;;;;;8329092;28;20052;-62
2023/06/26 17:06:07;;;;;;;3.37;1.57;;;;;;;;;;8329829;28;20032;-62
2023/06/26 17:10:07;;;;;;;2.05;1.33;;;;;;;;;;8328249;28;20028;-62
2023/06/26 17:14:08;;;;;;;3.17;1.55;;;;;;;;;;8331389;28;20028;-61
2023/06/26 17:18:08;;;;;;;3.92;1.50;;;;;;;;;;8328666;28;20032;-61
2023/06/26 17:22:08;;;;;;;3.17;1.60;;;;;;;;;;8330768;28;20349;-62
2023/06/26 17:26:08;;;;;;;6.93;1.50;;;;;;;;;;8329947;28;21054;-62
2023/06/26 17:30:09;;;;;;;3.63;1.40;;;;;;;;;;8327485;28;20189;-62
2023/06/26 17:34:09;;;;;;;3.45;1.67;;;;;;;;;;8326407;28;20750;-62
2023/06/26 17:38:10;;;;;;;2.33;1.40;;;;;;;;;;8326946;28;20028;-61
2023/06/26 17:42:10;;;;;;;3.50;1.40;;;;;;;;;;8329709;28;20025;-62
2023/06/26 17:46:10;;;;;;;3.05;1.60;;;;;;;;;;8327461;28;20041;-62
2023/06/26 17:50:12;;;;;;;2.72;1.40;;;;;;;;;;8328531;28;20040;-61
2023/06/26 17:54:13;;;;;;;4.47;1.67;;;;;;;;;;8327501;28;20068;-61
2023/06/26 17:58:13;;;;;;;2.83;1.53;;;;;;;;;;8326197;28;20021;-61
2023/06/26 18:02:13;;;;;;;4.23;1.43;;;;;;;;;;8337271;28;20227;-62
2023/06/26 18:06:13;;;;;;;1.25;1.10;;;;;;;;;;8326872;28;20035;-61
2023/06/26 18:10:14;;;;;;;2.73;1.20;;;;;;;;;;8329010;28;20033;-62
2023/06/26 18:14:14;;;;;;;2.93;1.37;;;;;;;;;;8327930;28;20052;-61
2023/06/26 18:18:15;;;;;;;2.65;1.38;;;;;;;;;;8327435;28;20033;-61
2023/06/26 18:22:15;;;;;;;2.33;1.40;;;;;;;;;;8328795;28;20093;-61
2023/06/26 18:26:15;;;;;;;3.10;1.38;;;;;;;;;;8327706;28;20033;-62
2023/06/26 18:30:16;;;;;;;3.40;1.20;;;;;;;;;;8328738;28;20081;-61
2023/06/26 18:34:16;;;;;;;3.00;1.40;;;;;;;;;;8335011;28;20020;-61
2023/06/26 18:38:16;;;;;;;2.15;1.17;;;;;;;;;;8315405;28;20054;-62
2023/06/26 18:42:16;;;;;;;4.33;1.40;;;;;;;;;;8331557;28;20025;-61
2023/06/26 18:46:17;;;;;;;1.92;1.20;;;;;;;;;;8330308;28;20271;-61
2023/06/26 18:50:18;;;;;;;1.27;1.13;;;;;;;;;;8313258;28;20028;-62
2023/06/26 18:54:19;;;;;;;3.63;1.40;;;;;;;;;;8344167;28;20281;-61
2023/06/26 18:58:19;;;;;;;3.55;1.20;;;;;;;;;;8333205;28;20021;-61
2023/06/26 19:02:19;;;;;;;5.78;1.30;;;;;;;;;;8333416;28;20029;-61
2023/06/26 19:06:19;;;;;;;1.15;1.05;;;;;;;;;;8333442;28;20980;-61
2023/06/26 19:10:20;;;;;;;3.47;1.30;;;;;;;;;;8333483;28;20484;-61
2023/06/26 19:14:20;;;;;;;3.00;1.23;;;;;;;;;;8334478;28;20534;-62
2023/06/26 19:18:20;;;;;;;2.22;1.20;;;;;;;;;;8328955;28;20441;-61
2023/06/26 19:22:21;;;;;;;2.13;1.20;;;;;;;;;;8331805;28;20024;-62
2023/06/26 19:26:22;;;;;;;1.92;1.25;;;;;;;;;;8333580;28;20769;-61
2023/06/26 19:30:22;;;;;;;2.97;1.20;;;;;;;;;;8321131;28;20098;-62
2023/06/26 19:34:23;;;;;;;4.07;1.37;;;;;;;;;;8333646;28;20983;-61
2023/06/26 19:38:23;;;;;;;2.35;1.48;;;;;;;;;;8330855;28;20024;-61
2023/06/26 19:42:23;;;;;;;2.35;1.10;;;;;;;;;;8336045;28;20037;-61
2023/06/26 19:46:23;;;;;;;2.60;1.10;;;;;;;;;;8329508;28;20076;-61
2023/06/26 19:50:24;;;;;;;3.80;1.42;;;;;;;;;;8330224;28;20448;-61
2023/06/26 19:54:24;;;;;;;2.08;1.30;;;;;;;;;;8329714;28;20638;-61
2023/06/26 19:58:24;;;;;;;5.20;1.77;;;;;;;;;;8330158;28;20017;-61
2023/06/26 20:02:24;;;;;;;3.85;1.23;;;;;;;;;;8329781;28;20799;-61
2023/06/26 20:06:24;;;;;;;2.42;1.25;;;;;;;;;;8329865;28;20332;-61
2023/06/26 20:10:25;;;;;;;2.83;1.30;;;;;;;;;;8331417;28;20036;-61
2023/06/26 20:14:26;;;;;;;1.60;1.20;;;;;;;;;;8332367;28;20033;-61
2023/06/26 20:18:26;;;;;;;2.47;1.30;;;;;;;;;;8331836;28;20710;-61
2023/06/26 20:22:26;;;;;;;2.90;1.20;;;;;;;;;;8329890;28;20016;-61
2023/06/26 20:26:27;;;;;;;2.33;1.30;;;;;;;;;;8323138;28;20029;-61
2023/06/26 20:30:27;;;;;;;3.72;1.58;;;;;;;;;;8332334;28;20123;-61
2023/06/26 20:34:27;;;;;;;1.98;1.15;;;;;;;;;;8334088;28;20029;-61
2023/06/26 20:38:27;;;;;;;1.33;1.00;;;;;;;;;;8331282;28;20514;-61
2023/06/26 20:42:28;;;;;;;1.73;1.30;;;;;;;;;;8329845;28;20307;-61
2023/06/26 20:46:31;;;;;;;2.08;1.40;;;;;;;;;;8329004;28;20303;-61
2023/06/26 20:50:32;;;;;;;2.15;1.20;;;;;;;;;;8326279;28;20594;-61
2023/06/26 20:54:33;;;;;;;1.33;1.23;;;;;;;;;;8325829;28;20028;-61
2023/06/26 20:58:33;;;;;;;1.42;1.30;;;;;;;;;;8327937;28;20025;-61
2023/06/26 21:02:34;;;;;;;5.22;1.40;;;;;;;;;;8327657;28;20485;-61
2023/06/26 21:06:34;;;;;;;1.20;1.00;;;;;;;;;;8319545;28;20029;-61
2023/06/26 21:10:34;;;;;;;1.40;1.17;;;;;;;;;;8327676;28;20040;-61
2023/06/26 21:14:34;;;;;;;3.80;1.20;;;;;;;;;;8328599;28;20074;-61
2023/06/26 21:18:35;;;;;;;4.10;1.42;;;;;;;;;;8327441;28;20058;-61
2023/06/26 21:22:35;;;;;;;1.53;1.10;;;;;;;;;;8331109;28;20029;-61
2023/06/26 21:26:36;;;;;;;3.63;1.27;;;;;;;;;;8328010;28;20028;-62
2023/06/26 21:30:37;;;;;;;1.65;1.30;;;;;;;;;;8328196;28;20345;-61
2023/06/26 21:34:37;;;;;;;3.00;1.20;;;;;;;;;;8332267;28;20024;-61
2023/06/26 21:38:37;;;;;;;3.00;1.40;;;;;;;;;;8329086;28;20035;-61
2023/06/26 21:42:37;;;;;;;1.85;1.33;;;;;;;;;;8326676;28;20064;-61
2023/06/26 21:46:38;;;;;;;2.28;1.33;;;;;;;;;;8329903;28;20186;-61
2023/06/26 21:50:38;;;;;;;4.35;1.40;;;;;;;;;;8328443;28;20030;-63
2023/06/26 21:54:38;;;;;;;1.92;1.10;;;;;;;;;;8329248;28;20028;-61
2023/06/26 21:58:38;;;;;;;2.28;1.50;;;;;;;;;;8326730;28;20809;-63
2023/06/26 22:02:40;;;;;;;5.65;1.35;;;;;;;;;;8328006;28;20546;-61
2023/06/26 22:06:40;;;;;;;1.88;1.08;;;;;;;;;;8327192;28;20489;-62
2023/06/26 22:10:40;;;;;;;4.00;1.20;;;;;;;;;;8330407;28;20663;-61
2023/06/26 22:14:41;;;;;;;2.50;1.20;;;;;;;;;;8328144;28;20035;-61
2023/06/26 22:18:42;;;;;;;1.88;1.30;;;;;;;;;;8327667;28;20124;-61
2023/06/26 22:22:43;;;;;;;4.43;1.45;;;;;;;;;;8327940;28;20060;-62
2023/06/26 22:26:43;;;;;;;2.08;1.45;;;;;;;;;;8327534;28;20436;-61
2023/06/26 22:30:43;;;;;;;2.03;1.35;;;;;;;;;;8328008;28;20036;-61
2023/06/26 22:34:45;;;;;;;4.57;1.40;;;;;;;;;;8329250;28;20119;-61
2023/06/26 22:38:45;;;;;;;3.58;1.40;;;;;;;;;;8328045;28;20036;-61
2023/06/26 22:42:45;;;;;;;2.73;1.33;;;;;;;;;;8330820;28;20025;-61
2023/06/26 22:46:46;;;;;;;3.40;1.23;;;;;;;;;;8325334;28;20409;-62
2023/06/26 22:50:46;;;;;;;2.57;1.27;;;;;;;;;;8329333;28;20028;-61
2023/06/26 22:54:46;;;;;;;1.98;1.30;;;;;;;;;;8328065;28;20350;-61
2023/06/26 22:58:46;;;;;;;6.90;1.33;;;;;;;;;;8326885;28;20033;-61
2023/06/26 23:02:47;;;;;;;3.35;1.20;;;;;;;;;;8331890;28;20029;-61
2023/06/26 23:06:47;;;;;;;3.03;1.30;;;;;;;;;;8340502;28;20111;-61
2023/06/26 23:10:48;;;;;;;6.00;1.40;;;;;;;;;;8333825;28;20354;-61
2023/06/26 23:14:48;;;;;;;1.60;1.15;;;;;;;;;;8329981;28;20029;-61
2023/06/26 23:18:48;;;;;;;2.15;1.25;;;;;;;;;;8334693;28;20040;-61
2023/06/26 23:22:48;;;;;;;2.70;1.23;;;;;;;;;;8334092;28;20032;-61
2023/06/26 23:26:49;;;;;;;5.13;1.30;;;;;;;;;;8339435;28;20071;-61
2023/06/26 23:30:49;;;;;;;2.50;1.15;;;;;;;;;;8343835;28;20037;-61
2023/06/26 23:34:50;;;;;;;3.70;1.50;;;;;;;;;;8332791;28;20106;-61
2023/06/26 23:38:50;;;;;;;1.85;1.20;;;;;;;;;;8332172;28;20020;-61
2023/06/26 23:42:50;;;;;;;2.42;1.20;;;;;;;;;;8341233;28;20033;-61
2023/06/26 23:46:51;;;;;;;2.90;1.20;;;;;;;;;;8332791;28;20656;-61
2023/06/26 23:50:51;;;;;;;1.97;1.00;;;;;;;;;;8335412;28;20027;-61
2023/06/26 23:54:53;;;;;;;1.90;1.10;;;;;;;;;;8340549;28;20024;-61
2023/06/26 23:58:53;;;;;;;3.38;0.98;;;;;;;;;;8331373;28;20029;-61
